createdAt,value
2019-02-12T00:00:56.947Z,18.75
2019-02-12T00:01:57.734Z,18.75
2019-02-12T00:02:57.261Z,18.75
2019-02-12T00:03:56.749Z,18.75
2019-02-12T00:04:56.828Z,18.75
2019-02-12T00:05:56.758Z,18.75
2019-02-12T00:06:56.385Z,18.75
2019-02-12T00:07:56.374Z,18.75
2019-02-12T00:08:56.996Z,18.75
2019-02-12T00:09:56.959Z,18.75
2019-02-12T00:10:56.574Z,18.75
2019-02-12T00:11:57.529Z,18.75
2019-02-12T00:12:57.080Z,18.75
2019-02-12T00:14:05.233Z,18.75
2019-02-12T00:14:56.398Z,18.75
2019-02-12T00:15:56.492Z,18.75
2019-02-12T00:16:56.443Z,18.75
2019-02-12T00:17:57.168Z,18.75
2019-02-12T00:18:56.530Z,18.75
2019-02-12T00:19:56.335Z,18.75
2019-02-12T00:20:56.481Z,18.75
2019-02-12T00:21:56.258Z,18.5
2019-02-12T00:22:56.454Z,18.75
2019-02-12T00:23:58.261Z,18.5
2019-02-12T00:24:56.291Z,18.5
2019-02-12T00:25:56.525Z,18.5
2019-02-12T00:26:58.278Z,18.5
2019-02-12T00:27:57.523Z,18.5
2019-02-12T00:28:56.883Z,18.5
2019-02-12T00:29:56.586Z,18.5
2019-02-12T00:30:56.499Z,18.5
2019-02-12T00:31:56.363Z,18.5
2019-02-12T00:32:56.357Z,18.5
2019-02-12T00:33:56.620Z,18.5
2019-02-12T00:34:56.936Z,18.5
2019-02-12T00:35:56.942Z,18.5
2019-02-12T00:36:56.438Z,18.5
2019-02-12T00:37:56.781Z,18.5
2019-02-12T00:38:56.876Z,18.5
2019-02-12T00:39:56.783Z,18.5
2019-02-12T00:40:56.893Z,18.5
2019-02-12T00:41:56.674Z,18.5
2019-02-12T00:42:56.618Z,18.5
2019-02-12T00:43:56.863Z,18.5
2019-02-12T00:44:56.494Z,18.5
2019-02-12T00:45:56.556Z,18.5
2019-02-12T00:46:56.337Z,18.5
2019-02-12T00:47:56.349Z,18.5
2019-02-12T00:48:56.753Z,18.5
2019-02-12T00:49:56.627Z,18.5
2019-02-12T00:50:56.765Z,18.5
2019-02-12T00:51:56.415Z,18.5
2019-02-12T00:52:56.268Z,18.5
2019-02-12T00:53:56.756Z,18.5
2019-02-12T00:54:56.389Z,18.5
2019-02-12T00:55:56.711Z,18.5
2019-02-12T00:56:56.926Z,18.5
2019-02-12T00:58:05.578Z,18.5
2019-02-12T00:58:56.199Z,18.5
2019-02-12T00:59:56.730Z,18.5
2019-02-12T01:00:56.327Z,18.5
2019-02-12T01:01:56.812Z,18.5
2019-02-12T01:02:56.853Z,18.5
2019-02-12T01:03:56.260Z,18.5
2019-02-12T01:04:56.393Z,18.5
2019-02-12T01:05:56.256Z,18.5
2019-02-12T01:06:57.280Z,18.5
2019-02-12T01:07:57.467Z,18.5
2019-02-12T01:08:56.555Z,18.5
2019-02-12T01:09:56.431Z,18.5
2019-02-12T01:10:57.398Z,18.5
2019-02-12T01:11:56.402Z,18.5
2019-02-12T01:12:56.832Z,18.5
2019-02-12T01:13:57.191Z,18.5
2019-02-12T01:14:56.416Z,18.5
2019-02-12T01:15:56.940Z,18.5
2019-02-12T01:16:56.868Z,18.5
2019-02-12T01:17:56.651Z,18.5
2019-02-12T01:18:56.761Z,18.5
2019-02-12T01:19:56.259Z,18.5
2019-02-12T01:20:56.781Z,18.5
2019-02-12T01:21:57.205Z,18.5
2019-02-12T01:22:56.703Z,18.5
2019-02-12T01:23:56.685Z,18.5
2019-02-12T01:24:56.749Z,18.5
2019-02-12T01:25:56.805Z,18.5
2019-02-12T01:26:58.187Z,18.5
2019-02-12T01:27:57.231Z,18.5
2019-02-12T01:28:56.216Z,18.25
2019-02-12T01:29:57.037Z,18.25
2019-02-12T01:30:56.839Z,18.25
2019-02-12T01:31:56.403Z,18.25
2019-02-12T01:32:56.398Z,18.25
2019-02-12T01:33:56.275Z,18.25
2019-02-12T01:34:56.378Z,18.25
2019-02-12T01:36:05.770Z,18.25
2019-02-12T01:36:56.977Z,18.25
2019-02-12T01:37:56.408Z,18.25
2019-02-12T01:38:56.138Z,18.25
2019-02-12T01:39:56.377Z,18.25
2019-02-12T01:40:58.449Z,18.25
2019-02-12T01:41:56.306Z,18.25
2019-02-12T01:42:57.281Z,18.25
2019-02-12T01:43:57.222Z,18.25
2019-02-12T01:44:56.383Z,18.25
2019-02-12T01:45:58.205Z,18.25
2019-02-12T01:46:56.380Z,18.25
2019-02-12T01:47:56.941Z,18.25
2019-02-12T01:48:56.354Z,18.25
2019-02-12T01:49:57.751Z,18.25
2019-02-12T01:50:57.183Z,18.25
2019-02-12T01:51:56.064Z,18.25
2019-02-12T01:52:56.598Z,18.25
2019-02-12T01:53:56.787Z,18.25
2019-02-12T01:54:56.614Z,18.25
2019-02-12T01:55:56.608Z,18.25
2019-02-12T01:56:56.922Z,18.25
2019-02-12T01:57:56.711Z,18.25
2019-02-12T01:58:56.703Z,18.25
2019-02-12T01:59:58.060Z,18.25
2019-02-12T02:00:56.139Z,18.25
2019-02-12T02:01:56.858Z,18.25
2019-02-12T02:02:56.234Z,18.25
2019-02-12T02:03:56.650Z,18.25
2019-02-12T02:04:56.987Z,18.25
2019-02-12T02:05:56.215Z,18.25
2019-02-12T02:06:56.355Z,18.25
2019-02-12T02:07:58.182Z,18.25
2019-02-12T02:08:56.704Z,18.25
2019-02-12T02:09:56.912Z,18.25
2019-02-12T02:10:56.356Z,18.25
2019-02-12T02:11:56.627Z,18.25
2019-02-12T02:12:56.834Z,18.25
2019-02-12T02:13:56.797Z,18.25
2019-02-12T02:14:56.341Z,18.25
2019-02-12T02:15:56.368Z,18.25
2019-02-12T02:16:56.478Z,18.25
2019-02-12T02:17:57.079Z,18.25
2019-02-12T02:18:56.958Z,18.25
2019-02-12T02:19:56.235Z,18.25
2019-02-12T02:20:57.229Z,18.25
2019-02-12T02:21:56.673Z,18.25
2019-02-12T02:22:56.489Z,18.25
2019-02-12T02:23:56.388Z,18.25
2019-02-12T02:24:56.695Z,18.25
2019-02-12T02:25:57.799Z,18.25
2019-02-12T02:26:56.271Z,18.25
2019-02-12T02:27:56.415Z,18.25
2019-02-12T02:28:56.700Z,18.25
2019-02-12T02:29:56.449Z,18.25
2019-02-12T02:30:56.507Z,18.25
2019-02-12T02:31:56.420Z,18.25
2019-02-12T02:32:57.798Z,18.25
2019-02-12T02:33:56.786Z,18.25
2019-02-12T02:34:56.346Z,18.25
2019-02-12T02:35:56.785Z,18.25
2019-02-12T02:36:56.683Z,18.25
2019-02-12T02:37:56.707Z,18
2019-02-12T02:38:56.751Z,18
2019-02-12T02:39:56.631Z,18
2019-02-12T02:40:56.610Z,18
2019-02-12T02:41:56.236Z,18
2019-02-12T02:42:56.330Z,18
2019-02-12T02:43:56.444Z,18
2019-02-12T02:44:56.522Z,18
2019-02-12T02:45:56.178Z,18
2019-02-12T02:46:56.975Z,18
2019-02-12T02:47:56.995Z,18
2019-02-12T02:48:56.198Z,18
2019-02-12T02:49:56.761Z,18
2019-02-12T02:50:56.350Z,18
2019-02-12T02:51:58.224Z,18
2019-02-12T02:52:56.229Z,18
2019-02-12T02:53:56.319Z,18
2019-02-12T02:54:56.458Z,18
2019-02-12T02:55:56.631Z,18
2019-02-12T02:56:57.461Z,18
2019-02-12T02:57:56.314Z,18
2019-02-12T02:58:56.295Z,18
2019-02-12T02:59:56.306Z,18
2019-02-12T03:00:57.356Z,18
2019-02-12T03:01:56.347Z,18
2019-02-12T03:02:56.475Z,18
2019-02-12T03:03:56.241Z,18
2019-02-12T03:04:56.648Z,18
2019-02-12T03:05:57.129Z,18
2019-02-12T03:06:57.728Z,18
2019-02-12T03:07:56.258Z,18
2019-02-12T03:08:56.339Z,18
2019-02-12T03:09:56.544Z,18
2019-02-12T03:10:57.765Z,18
2019-02-12T03:11:56.594Z,18
2019-02-12T03:12:57.064Z,18
2019-02-12T03:13:56.425Z,18
2019-02-12T03:14:56.595Z,18
2019-02-12T03:15:56.373Z,18
2019-02-12T03:16:58.019Z,18
2019-02-12T03:17:56.151Z,18
2019-02-12T03:18:56.594Z,18
2019-02-12T03:19:56.376Z,18
2019-02-12T03:20:56.317Z,18
2019-02-12T03:22:04.176Z,18
2019-02-12T03:22:57.180Z,18
2019-02-12T03:23:56.849Z,18
2019-02-12T03:24:58.244Z,18
2019-02-12T03:25:57.096Z,18
2019-02-12T03:26:58.177Z,18
2019-02-12T03:27:56.093Z,18
2019-02-12T03:28:56.824Z,18
2019-02-12T03:29:56.710Z,18
2019-02-12T03:30:57.213Z,18
2019-02-12T03:31:57.321Z,18
2019-02-12T03:32:56.457Z,18
2019-02-12T03:33:56.846Z,18
2019-02-12T03:34:57.194Z,18
2019-02-12T03:35:56.165Z,18
2019-02-12T03:36:56.436Z,18
2019-02-12T03:37:57.635Z,18
2019-02-12T03:38:57.721Z,18
2019-02-12T03:39:58.141Z,18
2019-02-12T03:40:56.929Z,18
2019-02-12T03:41:57.185Z,18
2019-02-12T03:42:56.603Z,18
2019-02-12T03:43:56.863Z,18
2019-02-12T03:44:56.617Z,18
2019-02-12T03:45:56.347Z,18
2019-02-12T03:46:56.318Z,18
2019-02-12T03:47:56.679Z,18
2019-02-12T03:48:57.725Z,18
2019-02-12T03:49:56.491Z,18
2019-02-12T03:50:56.877Z,18
2019-02-12T03:51:56.922Z,18
2019-02-12T03:52:56.725Z,18
2019-02-12T03:53:56.861Z,18
2019-02-12T03:54:56.365Z,18
2019-02-12T03:55:56.650Z,18
2019-02-12T03:56:56.654Z,18
2019-02-12T03:57:56.644Z,18
2019-02-12T03:58:56.381Z,18
2019-02-12T03:59:56.672Z,18
2019-02-12T04:00:56.400Z,18
2019-02-12T04:01:56.227Z,18
2019-02-12T04:02:57.525Z,18
2019-02-12T04:03:57.001Z,18
2019-02-12T04:04:56.878Z,18
2019-02-12T04:05:56.729Z,18
2019-02-12T04:06:56.303Z,18
2019-02-12T04:07:57.027Z,18
2019-02-12T04:08:56.940Z,18
2019-02-12T04:09:56.544Z,17.75
2019-02-12T04:10:56.424Z,17.75
2019-02-12T04:11:56.663Z,17.75
2019-02-12T04:12:56.134Z,17.75
2019-02-12T04:13:56.454Z,18
2019-02-12T04:14:56.913Z,17.75
2019-02-12T04:15:56.371Z,17.75
2019-02-12T04:16:56.487Z,17.75
2019-02-12T04:17:56.508Z,17.75
2019-02-12T04:18:56.293Z,17.75
2019-02-12T04:19:56.929Z,17.75
2019-02-12T04:20:56.312Z,17.75
2019-02-12T04:21:56.430Z,17.75
2019-02-12T04:22:56.813Z,17.75
2019-02-12T04:23:56.385Z,17.75
2019-02-12T04:24:56.857Z,17.75
2019-02-12T04:25:56.377Z,17.75
2019-02-12T04:26:56.679Z,17.75
2019-02-12T04:27:56.912Z,17.75
2019-02-12T04:28:57.985Z,17.75
2019-02-12T04:29:56.945Z,17.75
2019-02-12T04:30:56.314Z,17.75
2019-02-12T04:31:56.478Z,17.75
2019-02-12T04:32:56.279Z,17.75
2019-02-12T04:33:56.670Z,17.75
2019-02-12T04:34:56.219Z,17.75
2019-02-12T04:35:56.340Z,17.75
2019-02-12T04:36:56.318Z,17.75
2019-02-12T04:37:56.664Z,17.75
2019-02-12T04:38:56.661Z,17.75
2019-02-12T04:39:56.318Z,17.75
2019-02-12T04:40:56.568Z,17.75
2019-02-12T04:41:58.147Z,17.75
2019-02-12T04:42:56.774Z,17.75
2019-02-12T04:43:56.752Z,17.75
2019-02-12T04:44:56.718Z,17.75
2019-02-12T04:45:56.269Z,17.75
2019-02-12T04:46:56.381Z,17.75
2019-02-12T04:47:56.051Z,17.75
2019-02-12T04:48:56.452Z,17.75
2019-02-12T04:49:58.181Z,17.75
2019-02-12T04:50:56.156Z,17.75
2019-02-12T04:51:56.266Z,17.75
2019-02-12T04:52:56.398Z,17.75
2019-02-12T04:53:56.169Z,17.75
2019-02-12T04:54:56.318Z,17.75
2019-02-12T04:55:56.429Z,17.75
2019-02-12T04:56:56.506Z,17.75
2019-02-12T04:57:56.119Z,17.75
2019-02-12T04:58:56.156Z,17.75
2019-02-12T04:59:56.913Z,18
2019-02-12T05:00:56.599Z,17.75
2019-02-12T05:01:56.700Z,18
2019-02-12T05:02:56.204Z,18
2019-02-12T05:03:58.192Z,18
2019-02-12T05:04:56.491Z,18
2019-02-12T05:05:57.873Z,18
2019-02-12T05:06:56.004Z,18
2019-02-12T05:07:56.324Z,18
2019-02-12T05:08:58.115Z,18
2019-02-12T05:09:57.299Z,18
2019-02-12T05:10:56.187Z,18
2019-02-12T05:11:56.479Z,18
2019-02-12T05:12:56.995Z,18
2019-02-12T05:13:56.182Z,18
2019-02-12T05:14:56.478Z,18
2019-02-12T05:15:57.506Z,18
2019-02-12T05:16:56.211Z,18
2019-02-12T05:17:56.787Z,18
2019-02-12T05:18:56.814Z,18
2019-02-12T05:19:56.830Z,18
2019-02-12T05:20:56.757Z,18
2019-02-12T05:21:56.549Z,18.25
2019-02-12T05:23:05.146Z,18
2019-02-12T05:23:59.351Z,18.25
2019-02-12T05:24:56.772Z,18.25
2019-02-12T05:25:57.787Z,18.25
2019-02-12T05:26:56.993Z,18.25
2019-02-12T05:27:56.803Z,18.25
2019-02-12T05:28:57.080Z,18.25
2019-02-12T05:29:56.547Z,18.25
2019-02-12T05:30:57.207Z,18.25
2019-02-12T05:31:56.250Z,18.25
2019-02-12T05:32:56.358Z,18.25
2019-02-12T05:33:56.432Z,18.25
2019-02-12T05:34:56.958Z,18.25
2019-02-12T05:35:57.002Z,18.25
2019-02-12T05:36:56.400Z,18.25
2019-02-12T05:37:56.768Z,18.25
2019-02-12T05:38:56.415Z,18.25
2019-02-12T05:39:56.214Z,18.25
2019-02-12T05:40:57.111Z,18.25
2019-02-12T05:41:56.760Z,18.25
2019-02-12T05:42:56.672Z,18.25
2019-02-12T05:43:56.357Z,18.25
2019-02-12T05:44:56.560Z,18.25
2019-02-12T05:45:56.923Z,18.25
2019-02-12T05:46:56.719Z,18.25
2019-02-12T05:47:56.180Z,18.25
2019-02-12T05:48:56.962Z,18.25
2019-02-12T05:49:56.122Z,18.5
2019-02-12T05:50:56.858Z,18.25
2019-02-12T05:51:57.358Z,18.5
2019-02-12T05:52:56.345Z,18.5
2019-02-12T05:53:56.831Z,18.5
2019-02-12T05:54:56.825Z,18.5
2019-02-12T05:55:56.496Z,18.5
2019-02-12T05:56:56.630Z,18.5
2019-02-12T05:57:56.706Z,18.5
2019-02-12T05:58:56.172Z,18.5
2019-02-12T05:59:56.737Z,18.5
2019-02-12T06:00:56.807Z,18.5
2019-02-12T06:01:56.185Z,18.5
2019-02-12T06:02:56.848Z,18.5
2019-02-12T06:04:05.615Z,18.5
2019-02-12T06:04:56.045Z,18.5
2019-02-12T06:05:58.203Z,18.5
2019-02-12T06:06:56.775Z,18.5
2019-02-12T06:07:56.565Z,18.5
2019-02-12T06:08:56.147Z,18.5
2019-02-12T06:09:56.987Z,18.5
2019-02-12T06:10:57.549Z,18.5
2019-02-12T06:11:56.800Z,18.5
2019-02-12T06:12:56.158Z,18.5
2019-02-12T06:13:56.644Z,18.5
2019-02-12T06:14:57.231Z,18.5
2019-02-12T06:15:56.682Z,18.5
2019-02-12T06:16:56.088Z,18.5
2019-02-12T06:17:57.236Z,18.5
2019-02-12T06:18:56.411Z,18.5
2019-02-12T06:19:56.255Z,18.5
2019-02-12T06:20:56.424Z,18.5
2019-02-12T06:21:56.281Z,18.5
2019-02-12T06:23:04.459Z,18.25
2019-02-12T06:23:57.080Z,18.5
2019-02-12T06:24:56.392Z,18.5
2019-02-12T06:25:56.355Z,18.25
2019-02-12T06:26:56.595Z,18.25
2019-02-12T06:27:56.599Z,18.5
2019-02-12T06:28:57.100Z,18.25
2019-02-12T06:29:56.873Z,18.25
2019-02-12T06:30:56.089Z,18.25
2019-02-12T06:31:56.988Z,18.25
2019-02-12T06:32:57.065Z,18.25
2019-02-12T06:33:57.284Z,18.25
2019-02-12T06:34:56.430Z,18.25
2019-02-12T06:35:56.501Z,18.25
2019-02-12T06:36:56.769Z,18.25
2019-02-12T06:37:56.786Z,18.25
2019-02-12T06:38:56.772Z,18.25
2019-02-12T06:39:56.550Z,18.25
2019-02-12T06:40:56.294Z,18.25
2019-02-12T06:41:57.541Z,18.25
2019-02-12T06:42:58.116Z,18.25
2019-02-12T06:43:56.496Z,18.25
2019-02-12T06:44:56.945Z,18.25
2019-02-12T06:45:58.156Z,18.25
2019-02-12T06:46:57.306Z,18.25
2019-02-12T06:47:57.199Z,18.25
2019-02-12T06:48:56.659Z,18.25
2019-02-12T06:49:56.916Z,18.25
2019-02-12T06:50:57.098Z,18.25
2019-02-12T06:51:57.064Z,18.25
2019-02-12T06:52:56.098Z,18.25
2019-02-12T06:53:56.918Z,18.25
2019-02-12T06:54:56.120Z,18.25
2019-02-12T06:55:56.666Z,18.25
2019-02-12T06:56:57.077Z,18.25
2019-02-12T06:57:57.330Z,18.25
2019-02-12T06:58:58.081Z,18.25
2019-02-12T06:59:56.520Z,18.25
2019-02-12T07:00:57.170Z,18.25
2019-02-12T07:01:56.449Z,18.25
2019-02-12T07:02:56.567Z,18.25
2019-02-12T07:03:56.884Z,18.25
2019-02-12T07:04:56.648Z,18.25
2019-02-12T07:05:56.358Z,18.25
2019-02-12T07:06:56.666Z,18.25
2019-02-12T07:07:56.906Z,18.25
2019-02-12T07:08:56.710Z,18.25
2019-02-12T07:09:56.122Z,18.25
2019-02-12T07:10:56.193Z,18.25
2019-02-12T07:11:56.619Z,18.25
2019-02-12T07:12:56.132Z,18.25
2019-02-12T07:13:58.041Z,18.25
2019-02-12T07:14:56.684Z,18.25
2019-02-12T07:15:57.346Z,18.25
2019-02-12T07:16:57.165Z,18.25
2019-02-12T07:17:56.865Z,18.25
2019-02-12T07:18:56.767Z,18.25
2019-02-12T07:19:56.779Z,18.25
2019-02-12T07:20:56.174Z,18.25
2019-02-12T07:21:56.197Z,18.25
2019-02-12T07:22:56.686Z,18.25
2019-02-12T07:23:56.277Z,18.25
2019-02-12T07:24:56.584Z,18.25
2019-02-12T07:25:56.352Z,18.25
2019-02-12T07:26:56.373Z,18.25
2019-02-12T07:27:56.416Z,18.25
2019-02-12T07:28:56.277Z,18.25
2019-02-12T07:29:56.749Z,18.25
2019-02-12T07:30:56.246Z,18.25
2019-02-12T07:31:56.280Z,18.25
2019-02-12T07:32:56.749Z,18.25
2019-02-12T07:33:56.294Z,18.25
2019-02-12T07:34:56.306Z,18.25
2019-02-12T07:35:56.700Z,18.25
2019-02-12T07:36:56.342Z,18.25
2019-02-12T07:37:56.700Z,18.25
2019-02-12T07:38:56.598Z,18.25
2019-02-12T07:39:56.398Z,18.25
2019-02-12T07:40:56.415Z,18.25
2019-02-12T07:41:56.512Z,18.25
2019-02-12T07:42:56.349Z,18.25
2019-02-12T07:43:56.194Z,18.25
2019-02-12T07:44:56.723Z,18.25
2019-02-12T07:45:56.080Z,18.25
2019-02-12T07:46:56.257Z,18.25
2019-02-12T07:47:56.363Z,18.25
2019-02-12T07:48:56.273Z,18.25
2019-02-12T07:49:56.115Z,18.5
2019-02-12T07:50:56.138Z,18.5
2019-02-12T07:51:56.065Z,18.5
2019-02-12T07:52:57.440Z,18.5
2019-02-12T07:53:56.058Z,18.5
2019-02-12T07:54:56.651Z,18.5
2019-02-12T07:55:56.320Z,18.5
2019-02-12T07:56:56.225Z,18.5
2019-02-12T07:57:56.369Z,18.5
2019-02-12T07:58:57.282Z,18.5
2019-02-12T07:59:56.179Z,18.5
2019-02-12T08:00:57.259Z,18.5
2019-02-12T08:01:56.074Z,18.5
2019-02-12T08:02:56.166Z,18.5
2019-02-12T08:03:56.395Z,18.5
2019-02-12T08:04:56.592Z,18.5
2019-02-12T08:05:56.802Z,18.5
2019-02-12T08:06:57.226Z,18.5
2019-02-12T08:07:56.502Z,18.5
2019-02-12T08:08:56.356Z,18.75
2019-02-12T08:09:56.350Z,18.5
2019-02-12T08:10:56.323Z,18.75
2019-02-12T08:11:56.754Z,18.75
2019-02-12T08:12:56.193Z,18.75
2019-02-12T08:13:56.969Z,18.75
2019-02-12T08:14:56.618Z,18.75
2019-02-12T08:15:56.505Z,18.75
2019-02-12T08:16:56.527Z,18.75
2019-02-12T08:17:56.376Z,18.75
2019-02-12T08:18:56.797Z,18.75
2019-02-12T08:19:58.149Z,18.75
2019-02-12T08:20:56.344Z,18.75
2019-02-12T08:21:56.698Z,18.75
2019-02-12T08:22:56.816Z,18.75
2019-02-12T08:23:56.724Z,18.75
2019-02-12T08:24:56.738Z,18.75
2019-02-12T08:25:56.256Z,18.75
2019-02-12T08:26:56.066Z,18.75
2019-02-12T08:27:56.796Z,18.75
2019-02-12T08:28:56.450Z,18.75
2019-02-12T08:29:56.181Z,18.75
2019-02-12T08:30:56.671Z,18.75
2019-02-12T08:31:56.762Z,18.75
2019-02-12T08:32:56.789Z,18.75
2019-02-12T08:33:56.511Z,18.75
2019-02-12T08:34:56.589Z,19
2019-02-12T08:35:57.938Z,19
2019-02-12T08:36:58.111Z,19
2019-02-12T08:37:56.394Z,19
2019-02-12T08:38:56.722Z,19
2019-02-12T08:39:56.775Z,19
2019-02-12T08:40:57.993Z,19
2019-02-12T08:41:57.279Z,19
2019-02-12T08:42:56.766Z,19
2019-02-12T08:43:57.081Z,19
2019-02-12T08:44:58.121Z,19
2019-02-12T08:45:57.087Z,19
2019-02-12T08:46:56.736Z,19
2019-02-12T08:47:56.113Z,19
2019-02-12T08:48:56.264Z,19
2019-02-12T08:49:57.257Z,19
2019-02-12T08:50:57.230Z,19
2019-02-12T08:51:56.392Z,19
2019-02-12T08:52:56.617Z,19
2019-02-12T08:53:56.732Z,19
2019-02-12T08:54:56.711Z,19
2019-02-12T08:55:56.781Z,19
2019-02-12T08:56:56.376Z,19
2019-02-12T08:57:56.526Z,19
2019-02-12T08:58:56.637Z,19
2019-02-12T08:59:56.373Z,19
2019-02-12T09:00:56.532Z,19
2019-02-12T09:01:56.714Z,19
2019-02-12T09:02:56.595Z,19
2019-02-12T09:03:56.392Z,19
2019-02-12T09:04:57.034Z,19
2019-02-12T09:05:56.118Z,19
2019-02-12T09:06:56.358Z,19
2019-02-12T09:07:56.420Z,19
2019-02-12T09:08:56.643Z,19
2019-02-12T09:09:57.051Z,19
2019-02-12T09:10:56.435Z,19
2019-02-12T09:11:56.235Z,19
2019-02-12T09:12:56.452Z,19
2019-02-12T09:13:56.895Z,19
2019-02-12T09:14:56.497Z,19
2019-02-12T09:15:56.506Z,19
2019-02-12T09:16:56.407Z,19.25
2019-02-12T09:17:56.299Z,19
2019-02-12T09:18:58.075Z,19.25
2019-02-12T09:19:56.320Z,19.25
2019-02-12T09:20:56.360Z,19.25
2019-02-12T09:21:56.222Z,19.25
2019-02-12T09:22:56.310Z,19.25
2019-02-12T09:24:03.795Z,19.25
2019-02-12T09:24:56.327Z,19.25
2019-02-12T09:25:56.459Z,19.25
2019-02-12T09:26:56.378Z,19.25
2019-02-12T09:27:56.198Z,19.25
2019-02-12T09:28:55.962Z,19.25
2019-02-12T09:29:56.402Z,19.25
2019-02-12T09:30:57.652Z,19.25
2019-02-12T09:31:56.169Z,19.25
2019-02-12T09:32:56.250Z,19.25
2019-02-12T09:33:56.942Z,19.25
2019-02-12T09:34:56.814Z,19.25
2019-02-12T09:35:56.599Z,19.25
2019-02-12T09:36:56.427Z,19.25
2019-02-12T09:37:56.984Z,19.25
2019-02-12T09:38:56.549Z,19.25
2019-02-12T09:39:56.170Z,19.25
2019-02-12T09:40:56.067Z,19.25
2019-02-12T09:41:57.401Z,19.25
2019-02-12T09:42:57.374Z,19.25
2019-02-12T09:43:56.507Z,19.25
2019-02-12T09:44:56.050Z,19.5
2019-02-12T09:45:56.226Z,19.25
2019-02-12T09:46:56.220Z,19.25
2019-02-12T09:47:57.997Z,19.5
2019-02-12T09:48:56.092Z,19.5
2019-02-12T09:49:57.940Z,19.5
2019-02-12T09:50:56.068Z,19.5
2019-02-12T09:51:57.141Z,19.5
2019-02-12T09:52:56.630Z,19.5
2019-02-12T09:53:56.740Z,19.5
2019-02-12T09:54:57.895Z,19.5
2019-02-12T09:55:56.568Z,19.5
2019-02-12T09:56:56.247Z,19.5
2019-02-12T09:57:56.971Z,19.5
2019-02-12T09:58:57.032Z,19.5
2019-02-12T09:59:57.125Z,19.5
2019-02-12T10:00:56.403Z,19.5
2019-02-12T10:01:56.016Z,19.5
2019-02-12T10:02:56.052Z,19.5
2019-02-12T10:03:58.272Z,19.5
2019-02-12T10:04:56.464Z,19.5
2019-02-12T10:05:56.929Z,19.5
2019-02-12T10:06:56.416Z,19.5
2019-02-12T10:07:56.209Z,19.5
2019-02-12T10:08:56.173Z,19.5
2019-02-12T10:09:56.345Z,19.5
2019-02-12T10:10:57.507Z,19.5
2019-02-12T10:11:56.463Z,19.5
2019-02-12T10:12:56.350Z,19.5
2019-02-12T10:13:56.031Z,19.5
2019-02-12T10:14:56.278Z,19.5
2019-02-12T10:15:56.071Z,19.5
2019-02-12T10:16:56.813Z,19.5
2019-02-12T10:17:57.046Z,19.75
2019-02-12T10:18:55.991Z,19.75
2019-02-12T10:19:56.029Z,19.75
2019-02-12T10:20:56.378Z,19.75
2019-02-12T10:21:56.190Z,19.75
2019-02-12T10:22:55.969Z,19.75
2019-02-12T10:23:56.974Z,19.75
2019-02-12T10:24:57.172Z,19.75
2019-02-12T10:25:57.427Z,19.75
2019-02-12T10:26:56.817Z,19.75
2019-02-12T10:27:56.686Z,19.75
2019-02-12T10:28:56.010Z,19.75
2019-02-12T10:29:56.312Z,19.75
2019-02-12T10:30:56.579Z,19.75
2019-02-12T10:31:56.206Z,19.75
2019-02-12T10:32:56.198Z,19.75
2019-02-12T10:33:56.297Z,19.75
2019-02-12T10:34:57.999Z,19.75
2019-02-12T10:35:56.443Z,19.75
2019-02-12T10:36:56.181Z,19.75
2019-02-12T10:37:56.187Z,19.75
2019-02-12T10:38:56.667Z,19.75
2019-02-12T10:39:36.488Z,19.75
2019-02-12T10:40:35.801Z,19.75
2019-02-12T10:41:36.105Z,20
2019-02-12T10:42:15.350Z,20
2019-02-12T10:43:15.299Z,20
2019-02-12T10:44:15.913Z,20
2019-02-12T10:45:15.688Z,20
2019-02-12T10:46:16.387Z,20
2019-02-12T10:47:15.040Z,20
2019-02-12T10:48:15.100Z,20
2019-02-12T10:49:15.299Z,20.25
2019-02-12T10:50:15.204Z,20.25
2019-02-12T10:51:14.941Z,20.25
2019-02-12T10:52:16.611Z,20.25
2019-02-12T10:53:15.332Z,20.25
2019-02-12T10:54:18.939Z,20.25
2019-02-12T10:55:19.833Z,20.25
2019-02-12T10:56:19.743Z,20.25
2019-02-12T10:57:19.669Z,20.25
2019-02-12T10:58:19.337Z,20.25
2019-02-12T10:59:27.073Z,20.25
2019-02-12T11:00:27.180Z,20.25
2019-02-12T11:01:27.119Z,20.25
2019-02-12T11:02:27.681Z,20.5
2019-02-12T11:03:27.531Z,20.5
2019-02-12T11:04:33.777Z,20.5
2019-02-12T11:05:27.826Z,20.5
2019-02-12T11:06:27.725Z,20.5
2019-02-12T11:07:27.239Z,20.5
2019-02-12T11:08:27.709Z,20.5
2019-02-12T11:09:27.070Z,20.5
2019-02-12T11:10:27.697Z,20.5
2019-02-12T11:11:27.334Z,20.5
2019-02-12T11:12:27.213Z,20.5
2019-02-12T11:13:27.822Z,20.5
2019-02-12T11:14:27.853Z,20.5
2019-02-12T11:15:27.406Z,20.5
2019-02-12T11:16:28.967Z,20.5
2019-02-12T11:17:27.517Z,20.5
2019-02-12T11:18:28.099Z,20.5
2019-02-12T11:19:27.706Z,20.5
2019-02-12T11:20:27.603Z,20.5
2019-02-12T11:21:27.385Z,20.5
2019-02-12T11:22:27.731Z,20.5
2019-02-12T11:23:27.730Z,20.5
2019-02-12T11:24:27.483Z,20.5
2019-02-12T11:25:28.063Z,20.5
2019-02-12T11:26:27.646Z,20.5
2019-02-12T11:27:28.505Z,20.5
2019-02-12T11:28:28.004Z,20.5
2019-02-12T11:29:27.441Z,20.5
2019-02-12T11:30:27.492Z,20.5
2019-02-12T11:31:28.159Z,20.5
2019-02-12T11:32:27.850Z,20.5
2019-02-12T11:33:27.628Z,20.5
2019-02-12T11:34:27.529Z,20.5
2019-02-12T11:35:27.519Z,20.5
2019-02-12T11:36:28.154Z,20.5
2019-02-12T11:37:27.319Z,20.5
2019-02-12T11:38:27.484Z,20.5
2019-02-12T11:39:28.407Z,20.5
2019-02-12T11:40:27.450Z,20.5
2019-02-12T11:41:28.125Z,20.5
2019-02-12T11:42:27.596Z,20.5
2019-02-12T11:43:28.372Z,20.5
2019-02-12T11:44:27.952Z,20.5
2019-02-12T11:45:27.684Z,20.5
2019-02-12T11:46:29.085Z,20.5
2019-02-12T11:47:27.677Z,20.5
2019-02-12T11:48:27.923Z,20.5
2019-02-12T11:49:27.815Z,20.5
2019-02-12T11:50:28.471Z,20.5
2019-02-12T11:51:27.889Z,20.5
2019-02-12T11:52:27.938Z,20.5
2019-02-12T11:53:28.251Z,20.5
2019-02-12T11:54:27.695Z,20.5
2019-02-12T11:55:27.615Z,20.5
2019-02-12T11:56:28.209Z,20.5
2019-02-12T11:57:28.101Z,20.5
2019-02-12T11:58:28.925Z,20.5
2019-02-12T11:59:27.947Z,20.5
2019-02-12T12:00:28.058Z,20.5
2019-02-12T12:01:27.740Z,20.5
2019-02-12T12:02:28.605Z,20.5
2019-02-12T12:03:28.026Z,20.5
2019-02-12T12:04:27.517Z,20.5
2019-02-12T12:05:27.640Z,20.5
2019-02-12T12:06:27.787Z,20.5
2019-02-12T12:07:27.908Z,20.5
2019-02-12T12:08:27.680Z,20.5
2019-02-12T12:09:27.277Z,20.5
2019-02-12T12:10:27.781Z,20.5
2019-02-12T12:11:27.449Z,20.5
2019-02-12T12:12:27.502Z,20.5
2019-02-12T12:13:27.360Z,20.5
2019-02-12T12:14:27.140Z,20.5
2019-02-12T12:15:27.198Z,20.5
2019-02-12T12:16:27.671Z,20.5
2019-02-12T12:17:27.471Z,20.5
2019-02-12T12:18:27.368Z,20.5
2019-02-12T12:19:27.215Z,20.5
2019-02-12T12:20:27.905Z,20.5
2019-02-12T12:21:27.512Z,20.5
2019-02-12T12:22:27.318Z,20.5
2019-02-12T12:23:28.242Z,20.5
2019-02-12T12:24:28.038Z,20.5
2019-02-12T12:25:29.260Z,20.5
2019-02-12T12:26:27.339Z,20.5
2019-02-12T12:27:27.971Z,20.5
2019-02-12T12:28:27.664Z,20.5
2019-02-12T12:29:27.249Z,20.5
2019-02-12T12:30:27.294Z,20.5
2019-02-12T12:31:27.594Z,20.5
2019-02-12T12:32:27.695Z,20.5
2019-02-12T12:33:27.711Z,20.5
2019-02-12T12:34:27.605Z,20.5
2019-02-12T12:35:27.374Z,20.5
2019-02-12T12:36:27.434Z,20.5
2019-02-12T12:37:27.626Z,20.5
2019-02-12T12:38:27.564Z,20.5
2019-02-12T12:39:27.284Z,20.5
2019-02-12T12:40:27.464Z,20.5
2019-02-12T12:41:27.348Z,20.5
2019-02-12T12:42:27.314Z,20.5
2019-02-12T12:43:27.416Z,20.5
2019-02-12T12:44:27.284Z,20.75
2019-02-12T12:45:27.358Z,20.5
2019-02-12T12:46:27.541Z,20.5
2019-02-12T12:47:27.488Z,20.5
2019-02-12T12:48:27.624Z,20.75
2019-02-12T12:49:27.781Z,20.5
2019-02-12T12:50:27.425Z,20.5
2019-02-12T12:51:27.414Z,20.75
2019-02-12T12:52:27.496Z,20.75
2019-02-12T12:53:27.674Z,20.75
2019-02-12T12:54:27.954Z,20.75
2019-02-12T12:55:27.478Z,20.75
2019-02-12T12:56:27.930Z,20.75
2019-02-12T12:57:27.654Z,20.75
2019-02-12T12:58:27.526Z,20.75
2019-02-12T12:59:27.920Z,20.75
2019-02-12T13:00:28.274Z,20.75
2019-02-12T13:01:27.525Z,20.75
2019-02-12T13:02:29.348Z,20.75
2019-02-12T13:03:27.420Z,20.75
2019-02-12T13:04:27.499Z,20.75
2019-02-12T13:05:27.976Z,20.75
2019-02-12T13:06:27.887Z,20.75
2019-02-12T13:07:27.658Z,20.75
2019-02-12T13:08:27.810Z,20.75
2019-02-12T13:09:27.685Z,20.75
2019-02-12T13:10:27.655Z,20.75
2019-02-12T13:11:27.716Z,20.75
2019-02-12T13:12:27.908Z,20.75
2019-02-12T13:13:27.754Z,20.75
2019-02-12T13:14:28.063Z,20.75
2019-02-12T13:15:28.103Z,20.75
2019-02-12T13:16:27.702Z,20.75
2019-02-12T13:17:27.962Z,20.75